createdAt,value
2023-03-21T00:04:20.832Z,99671.25
2023-03-21T00:09:43.445Z,99656.41
2023-03-21T00:15:10.194Z,99657.66
2023-03-21T00:20:34.930Z,99609.16
2023-03-21T00:26:00.417Z,99602.59
2023-03-21T00:31:22.739Z,99613.53
2023-03-21T00:36:45.086Z,99628.28
2023-03-21T00:42:06.928Z,99642.78
2023-03-21T00:47:29.023Z,99633.56
2023-03-21T00:52:51.239Z,99617.09
2023-03-21T00:58:14.180Z,99630.47
2023-03-21T01:03:43.267Z,99631.03
2023-03-21T01:09:08.676Z,99624.47
2023-03-21T01:14:31.776Z,99618.59
2023-03-21T01:19:53.406Z,99607.53
2023-03-21T01:25:22.377Z,99610.06
2023-03-21T01:30:47.474Z,99609.63
2023-03-21T01:36:20.319Z,99597.53
2023-03-21T01:41:45.246Z,99602.34
2023-03-21T01:47:13.888Z,99600.28
2023-03-21T01:52:45.058Z,99573.13
2023-03-21T01:58:18.754Z,99588.44
2023-03-21T02:04:04.225Z,99581.44
2023-03-21T02:09:32.562Z,99576.47
2023-03-21T02:14:56.755Z,99553.75
2023-03-21T02:21:24.264Z,99549.06
2023-03-21T02:27:28.134Z,99563.22
2023-03-21T02:33:18.449Z,99555.06
2023-03-21T02:39:23.848Z,99546.41
2023-03-21T02:45:02.355Z,99533.06
2023-03-21T02:50:39.137Z,99507.16
2023-03-21T02:56:03.448Z,99523.94
2023-03-21T03:01:29.744Z,99490.03
2023-03-21T03:07:04.005Z,99515.19
2023-03-21T03:12:47.383Z,99516.81
2023-03-21T03:18:40.398Z,99496.78
2023-03-21T03:24:34.799Z,99508.72
2023-03-21T03:30:01.418Z,99473.16
2023-03-21T03:35:26.818Z,99490.66
2023-03-21T03:40:55.886Z,99474.22
2023-03-21T03:46:47.628Z,99482.50
2023-03-21T03:52:24.677Z,99484.63
2023-03-21T03:57:55.683Z,99481.97
2023-03-21T04:03:19.214Z,99464.59
2023-03-21T04:08:41.622Z,99466.22
2023-03-21T04:14:03.959Z,99485.06
2023-03-21T04:19:27.208Z,99465.00
2023-03-21T04:24:49.801Z,99478.53
2023-03-21T04:30:13.863Z,99470.66
2023-03-21T04:35:49.251Z,99445.09
2023-03-21T04:41:13.999Z,99456.72
2023-03-21T04:46:36.364Z,99462.75
2023-03-21T04:52:01.714Z,99446.50
2023-03-21T04:57:24.661Z,99437.50
2023-03-21T05:02:47.891Z,99459.31
2023-03-21T05:08:10.236Z,99413.56
2023-03-21T05:13:33.832Z,99420.41
2023-03-21T05:19:02.434Z,99419.44
2023-03-21T05:24:27.753Z,99430.47
2023-03-21T05:29:52.856Z,99410.19
2023-03-21T05:35:17.475Z,99420.16
2023-03-21T05:40:40.716Z,99442.16
2023-03-21T05:46:07.990Z,99414.47
2023-03-21T05:51:32.495Z,99426.41
2023-03-21T05:56:55.243Z,99418.66
2023-03-21T06:02:36.863Z,99407.13
2023-03-21T06:08:04.338Z,99410.00
2023-03-21T06:13:26.760Z,99408.56
2023-03-21T06:18:49.407Z,99405.25
2023-03-21T06:24:22.472Z,99400.78
2023-03-21T06:29:46.474Z,99399.84
2023-03-21T06:35:09.478Z,99379.66
2023-03-21T06:40:33.639Z,99362.16
2023-03-21T06:45:56.595Z,99376.31
2023-03-21T06:51:19.039Z,99329.63
2023-03-21T06:57:03.078Z,99354.31
2023-03-21T07:02:29.783Z,99351.47
2023-03-21T07:08:04.186Z,99361.44
2023-03-21T07:13:29.027Z,99362.56
2023-03-21T07:18:58.319Z,99354.59
2023-03-21T07:24:21.323Z,99349.03
2023-03-21T07:29:44.603Z,99355.72
2023-03-21T07:35:09.477Z,99361.06
2023-03-21T07:40:31.993Z,99348.28
2023-03-21T07:45:58.109Z,99340.03
2023-03-21T07:51:21.417Z,99350.69
2023-03-21T07:56:43.816Z,99319.50
2023-03-21T08:02:06.308Z,99323.50
2023-03-21T08:07:28.616Z,99327.78
2023-03-21T08:12:50.967Z,99328.56
2023-03-21T08:18:13.122Z,99308.50
2023-03-21T08:23:36.858Z,99313.31
2023-03-21T08:28:59.257Z,99316.25
2023-03-21T08:34:23.625Z,99305.00
2023-03-21T08:39:46.201Z,99296.22
2023-03-21T08:45:09.659Z,99305.25
2023-03-21T08:50:32.458Z,99297.47
2023-03-21T08:55:55.031Z,99312.66
2023-03-21T09:01:18.676Z,99275.59
2023-03-21T09:06:46.121Z,99274.28
2023-03-21T09:12:11.218Z,99258.00
2023-03-21T09:17:33.952Z,99271.78
2023-03-21T09:23:03.771Z,99260.56
2023-03-21T09:28:25.917Z,99277.03
2023-03-21T09:33:48.487Z,99244.19
2023-03-21T09:39:12.022Z,99264.88
2023-03-21T09:45:06.798Z,99265.66
2023-03-21T09:50:39.502Z,99248.03
2023-03-21T09:56:06.096Z,99238.16
2023-03-21T10:01:42.526Z,99237.06
2023-03-21T10:07:05.599Z,99241.63
2023-03-21T10:12:31.979Z,99249.63
2023-03-21T10:18:00.670Z,99233.91
2023-03-21T10:23:28.688Z,99223.75
2023-03-21T10:28:56.902Z,99240.47
2023-03-21T10:34:40.837Z,99249.81
2023-03-21T10:40:03.267Z,99236.28
2023-03-21T10:45:28.773Z,99226.75
2023-03-21T10:51:00.182Z,99214.94
2023-03-21T10:56:28.680Z,99222.41
2023-03-21T11:01:53.526Z,99230.75
2023-03-21T11:07:16.668Z,99212.44
2023-03-21T11:12:41.330Z,99220.91
2023-03-21T11:18:25.435Z,99217.63
2023-03-21T11:23:52.736Z,99216.59
2023-03-21T11:29:20.453Z,99216.69
2023-03-21T11:34:48.927Z,99188.25
2023-03-21T11:40:27.889Z,99197.91
2023-03-21T11:46:08.670Z,99204.88
2023-03-21T11:51:52.057Z,99168.41
2023-03-21T11:57:33.756Z,99196.13
2023-03-21T12:03:18.535Z,99197.16
2023-03-21T12:08:44.205Z,99195.31
2023-03-21T12:14:13.221Z,99195.31
2023-03-21T12:19:38.511Z,99190.78
2023-03-21T12:25:20.010Z,99180.34
2023-03-21T12:30:56.820Z,99152.91
2023-03-21T12:36:58.115Z,99140.69
2023-03-21T12:42:52.635Z,99166.81
2023-03-21T12:48:39.147Z,99159.88
2023-03-21T12:54:32.053Z,99158.78
2023-03-21T13:00:40.321Z,99128.91
2023-03-21T13:06:08.085Z,99137.44
2023-03-21T13:11:32.061Z,99126.75
2023-03-21T13:17:02.229Z,99134.22
2023-03-21T13:22:29.857Z,99121.47
2023-03-21T13:27:55.288Z,99114.28
2023-03-21T13:33:25.222Z,99112.13
2023-03-21T13:38:52.274Z,99119.84
2023-03-21T13:44:26.012Z,99118.81
2023-03-21T13:50:27.937Z,99117.50
2023-03-21T13:56:00.942Z,99098.59
2023-03-21T14:01:39.298Z,99108.72
2023-03-21T14:07:22.587Z,99101.53
2023-03-21T14:12:46.195Z,99088.50
2023-03-21T14:18:21.254Z,99046.16
2023-03-21T14:24:14.534Z,99046.69
2023-03-21T14:29:37.306Z,99044.06
2023-03-21T14:35:02.522Z,99066.44
2023-03-21T14:40:28.473Z,99053.13
2023-03-21T14:45:56.589Z,99034.50
2023-03-21T14:51:19.972Z,99027.34
2023-03-21T14:56:42.065Z,99049.16
2023-03-21T15:02:27.063Z,99069.44
2023-03-21T15:08:15.219Z,99060.38
2023-03-21T15:13:55.691Z,99047.06
2023-03-21T15:19:23.938Z,99065.19
2023-03-21T15:24:57.557Z,99053.19
2023-03-21T15:30:28.611Z,99066.75
2023-03-21T15:35:54.652Z,99065.69
2023-03-21T15:41:23.581Z,99061.41
2023-03-21T15:46:51.106Z,99063.03
2023-03-21T15:52:16.500Z,99061.41
2023-03-21T15:57:40.541Z,99034.50
2023-03-21T16:03:26.926Z,99059.00
2023-03-21T16:08:52.230Z,99075.78
2023-03-21T16:14:14.505Z,99050.75
2023-03-21T16:19:36.770Z,99045.94
2023-03-21T16:24:59.279Z,99049.41
2023-03-21T16:30:22.912Z,99070.97
2023-03-21T16:35:45.663Z,99045.13
2023-03-21T16:41:12.908Z,99056.34
2023-03-21T16:46:35.699Z,99053.16
2023-03-21T16:51:59.052Z,99073.94
2023-03-21T16:57:30.493Z,99061.41
2023-03-21T17:02:55.342Z,99065.16
2023-03-21T17:08:19.916Z,99047.31
2023-03-21T17:13:41.986Z,99084.31
2023-03-21T17:19:04.922Z,99093.34
2023-03-21T17:24:27.050Z,99070.72
2023-03-21T17:29:48.970Z,99068.34
2023-03-21T17:35:11.311Z,99045.69
2023-03-21T17:40:33.606Z,99058.75
2023-03-21T17:45:57.005Z,99076.28
2023-03-21T17:51:20.727Z,99031.56
2023-03-21T17:56:45.469Z,99042.22
2023-03-21T18:02:14.499Z,99020.13
2023-03-21T18:08:11.061Z,99037.41
2023-03-21T18:13:38.488Z,99052.34
2023-03-21T18:19:01.224Z,99049.66
2023-03-21T18:24:27.355Z,99036.38
2023-03-21T18:35:40.532Z,99020.94
2023-03-21T18:41:08.365Z,99055.03
2023-03-21T18:46:31.269Z,99052.91
2023-03-21T18:51:56.228Z,99027.31
2023-03-21T19:03:17.147Z,99039.28
2023-03-21T19:08:42.922Z,99034.22
2023-03-21T19:14:05.021Z,99035.56
2023-03-21T19:19:27.871Z,99046.22
2023-03-21T19:24:50.280Z,99052.31
2023-03-21T19:30:15.863Z,99046.47
2023-03-21T19:35:42.603Z,99052.84
2023-03-21T19:41:04.717Z,99042.75
2023-03-21T19:46:27.118Z,99052.34
2023-03-21T19:51:50.213Z,99046.47
2023-03-21T19:57:12.538Z,99040.59
2023-03-21T20:02:36.643Z,99042.75
2023-03-21T20:08:02.095Z,99048.06
2023-03-21T20:13:24.350Z,99051.25
2023-03-21T20:18:47.251Z,99040.59
2023-03-21T20:24:11.181Z,99048.84
2023-03-21T20:35:28.872Z,99056.84
2023-03-21T20:41:02.525Z,99052.31
2023-03-21T20:46:24.710Z,99053.63
2023-03-21T20:52:49.309Z,99047.50
2023-03-21T20:57:34.214Z,99026.72
2023-03-21T21:02:58.309Z,99021.66
2023-03-21T21:08:21.626Z,99035.78
2023-03-21T21:13:44.021Z,99047.00
2023-03-21T21:19:06.072Z,99037.91
2023-03-21T21:24:28.515Z,99033.63
2023-03-21T21:29:50.653Z,99049.63
2023-03-21T21:35:12.773Z,99028.59
2023-03-21T21:40:35.193Z,99039.00
2023-03-21T21:45:57.652Z,99047.25
2023-03-21T21:51:26.710Z,99065.38
2023-03-21T21:56:49.458Z,99079.75
2023-03-21T22:02:17.317Z,99084.81
2023-03-21T22:07:39.718Z,99079.50
2023-03-21T22:13:02.025Z,99083.75
2023-03-21T22:18:23.644Z,99078.44
2023-03-21T22:23:45.466Z,99081.63
2023-03-21T22:29:08.727Z,99091.75
2023-03-21T22:34:33.189Z,99103.19
2023-03-21T22:39:55.578Z,99090.94
2023-03-21T22:45:18.024Z,99100.50
2023-03-21T22:50:40.178Z,99114.63
2023-03-21T22:56:02.482Z,99119.94
2023-03-21T23:01:24.420Z,99120.19
2023-03-21T23:06:46.952Z,99123.94
2023-03-21T23:12:09.138Z,99122.56
2023-03-21T23:17:30.989Z,99129.78
2023-03-21T23:22:52.728Z,99131.63
2023-03-21T23:28:14.673Z,99118.81
2023-03-21T23:33:36.736Z,99139.63
2023-03-21T23:38:58.709Z,99135.84
2023-03-21T23:44:20.460Z,99133.72
2023-03-21T23:49:45.636Z,99148.63
2023-03-21T23:55:08.613Z,99149.69
